createdAt,value
2022-08-23T00:04:05.131Z,5.78
2022-08-23T00:06:32.538Z,6.72
2022-08-23T00:08:59.254Z,6.00
2022-08-23T00:11:36.220Z,6.53
2022-08-23T00:14:09.084Z,5.40
2022-08-23T00:16:35.590Z,6.38
2022-08-23T00:19:05.706Z,6.18
2022-08-23T00:21:32.107Z,6.38
2022-08-23T00:23:58.667Z,6.03
2022-08-23T00:26:26.003Z,6.50
2022-08-23T00:28:52.387Z,7.07
2022-08-23T00:31:19.515Z,6.70
2022-08-23T00:33:45.947Z,6.10
2022-08-23T00:36:12.369Z,6.63
2022-08-23T00:38:39.109Z,6.57
2022-08-23T00:41:05.853Z,7.68
2022-08-23T00:43:55.124Z,6.53
2022-08-23T00:46:54.132Z,6.97
2022-08-23T00:49:21.163Z,7.43
2022-08-23T00:52:08.214Z,6.80
2022-08-23T00:54:35.292Z,6.45
2022-08-23T00:57:05.512Z,6.63
2022-08-23T00:59:32.568Z,7.15
2022-08-23T01:02:00.350Z,6.15
2022-08-23T01:04:34.331Z,6.90
2022-08-23T01:07:10.001Z,7.78
2022-08-23T01:09:37.975Z,6.38
2022-08-23T01:12:18.546Z,6.40
2022-08-23T01:15:00.666Z,6.53
2022-08-23T01:17:30.988Z,6.22
2022-08-23T01:20:10.345Z,6.70
2022-08-23T01:23:07.183Z,6.43
2022-08-23T01:25:33.840Z,6.60
2022-08-23T01:28:01.212Z,6.80
2022-08-23T01:30:32.440Z,6.68
2022-08-23T01:33:01.282Z,7.05
2022-08-23T01:35:38.102Z,7.28
2022-08-23T01:38:05.592Z,7.20
2022-08-23T01:40:32.941Z,6.78
2022-08-23T01:43:00.311Z,7.35
2022-08-23T01:45:27.382Z,8.18
2022-08-23T01:47:53.864Z,7.60
2022-08-23T01:50:20.581Z,7.43
2022-08-23T01:52:47.555Z,7.47
2022-08-23T01:55:14.363Z,7.78
2022-08-23T01:57:41.908Z,7.60
2022-08-23T02:00:09.376Z,7.53
2022-08-23T02:02:40.823Z,7.22
2022-08-23T02:05:08.197Z,7.43
2022-08-23T02:07:34.817Z,7.70
2022-08-23T02:10:01.236Z,7.50
2022-08-23T02:12:29.813Z,7.82
2022-08-23T02:14:56.690Z,8.38
2022-08-23T02:17:23.163Z,8.02
2022-08-23T02:19:49.692Z,7.75
2022-08-23T02:22:16.117Z,7.97
2022-08-23T02:24:44.527Z,7.78
2022-08-23T02:27:12.033Z,7.88
2022-08-23T02:29:39.466Z,7.20
2022-08-23T02:32:06.779Z,7.82
2022-08-23T02:34:33.345Z,8.35
2022-08-23T02:37:00.090Z,8.30
2022-08-23T02:39:26.953Z,8.25
2022-08-23T02:41:53.762Z,8.63
2022-08-23T02:44:20.843Z,8.73
2022-08-23T02:46:47.702Z,7.90
2022-08-23T02:49:14.413Z,8.15
2022-08-23T02:51:41.361Z,8.55
2022-08-23T02:54:07.876Z,9.52
2022-08-23T02:56:34.307Z,9.15
2022-08-23T02:59:00.969Z,8.35
2022-08-23T03:01:30.136Z,8.52
2022-08-23T03:03:58.153Z,9.02
2022-08-23T03:06:26.537Z,9.45
2022-08-23T03:08:54.553Z,8.07
2022-08-23T03:11:22.692Z,8.65
2022-08-23T03:13:50.192Z,8.55
2022-08-23T03:16:18.131Z,7.90
2022-08-23T03:18:44.701Z,8.93
2022-08-23T03:21:11.335Z,8.25
2022-08-23T03:23:39.081Z,8.35
2022-08-23T03:26:07.848Z,8.10
2022-08-23T03:28:35.648Z,8.82
2022-08-23T03:31:02.742Z,7.90
2022-08-23T03:33:29.189Z,8.10
2022-08-23T03:36:03.688Z,8.07
2022-08-23T03:38:30.221Z,7.03
2022-08-23T03:40:57.160Z,7.63
2022-08-23T03:43:23.624Z,6.60
2022-08-23T03:45:50.231Z,7.30
2022-08-23T03:48:17.433Z,7.22
2022-08-23T03:50:44.381Z,8.10
2022-08-23T03:53:12.163Z,7.75
2022-08-23T03:55:42.697Z,8.23
2022-08-23T03:58:10.404Z,7.78
2022-08-23T04:00:36.963Z,7.20
2022-08-23T04:03:03.469Z,7.18
2022-08-23T04:05:29.966Z,6.70
2022-08-23T04:07:56.354Z,7.50
2022-08-23T04:10:22.797Z,7.20
2022-08-23T04:12:49.721Z,7.15
2022-08-23T04:15:16.205Z,6.88
2022-08-23T04:17:42.786Z,6.70
2022-08-23T04:20:09.515Z,6.38
2022-08-23T04:22:35.904Z,7.28
2022-08-23T04:25:03.150Z,6.95
2022-08-23T04:27:29.791Z,8.50
2022-08-23T04:29:56.184Z,7.38
2022-08-23T04:32:28.105Z,8.02
2022-08-23T04:34:55.095Z,8.15
2022-08-23T04:37:21.524Z,6.82
2022-08-23T04:40:06.702Z,7.65
2022-08-23T04:42:33.305Z,7.20
2022-08-23T04:45:01.085Z,6.93
2022-08-23T04:47:27.539Z,7.22
2022-08-23T04:49:53.945Z,6.65
2022-08-23T04:52:20.474Z,7.45
2022-08-23T04:54:47.217Z,7.50
2022-08-23T04:57:15.364Z,7.35
2022-08-23T04:59:42.364Z,6.55
2022-08-23T05:02:08.824Z,7.25
2022-08-23T05:04:35.321Z,7.18
2022-08-23T05:07:02.314Z,7.30
2022-08-23T05:09:29.096Z,6.45
2022-08-23T05:11:55.529Z,7.75
2022-08-23T05:14:21.932Z,6.75
2022-08-23T05:16:48.329Z,7.07
2022-08-23T05:19:14.757Z,7.55
2022-08-23T05:21:41.227Z,6.90
2022-08-23T05:24:07.700Z,6.90
2022-08-23T05:26:40.033Z,6.85
2022-08-23T05:29:06.921Z,7.07
2022-08-23T05:31:33.403Z,7.82
2022-08-23T05:33:59.871Z,6.90
2022-08-23T05:36:26.301Z,7.03
2022-08-23T05:38:53.378Z,6.80
2022-08-23T05:41:21.114Z,6.78
2022-08-23T05:43:48.235Z,6.45
2022-08-23T05:46:18.421Z,6.68
2022-08-23T05:48:48.369Z,6.50
2022-08-23T05:51:29.329Z,7.22
2022-08-23T05:54:00.504Z,6.47
2022-08-23T05:56:35.483Z,6.90
2022-08-23T05:59:06.510Z,6.78
2022-08-23T06:01:40.097Z,7.75
2022-08-23T06:04:09.013Z,6.95
2022-08-23T06:06:37.652Z,7.18
2022-08-23T06:09:05.906Z,7.03
2022-08-23T06:11:32.736Z,7.63
2022-08-23T06:14:01.649Z,6.90
2022-08-23T06:16:31.391Z,8.32
2022-08-23T06:18:58.917Z,7.63
2022-08-23T06:21:25.864Z,7.78
2022-08-23T06:23:52.426Z,8.48
2022-08-23T06:26:25.812Z,8.07
2022-08-23T06:28:55.071Z,8.02
2022-08-23T06:31:42.177Z,8.13
2022-08-23T06:34:10.041Z,8.25
2022-08-23T06:36:37.293Z,8.63
2022-08-23T06:39:05.164Z,9.07
2022-08-23T06:41:31.593Z,9.20
2022-08-23T06:43:58.329Z,9.27
2022-08-23T06:46:28.260Z,9.70
2022-08-23T06:48:56.293Z,9.60
2022-08-23T06:51:26.783Z,9.50
2022-08-23T06:53:55.106Z,9.50
2022-08-23T06:56:23.168Z,10.23
2022-08-23T06:58:50.021Z,8.95
2022-08-23T07:01:45.648Z,9.93
2022-08-23T07:04:14.759Z,10.00
2022-08-23T07:06:41.638Z,9.57
2022-08-23T07:09:08.048Z,10.00
2022-08-23T07:11:34.885Z,9.43
2022-08-23T07:14:04.507Z,10.18
2022-08-23T07:16:36.609Z,10.85
2022-08-23T07:19:04.041Z,10.68
2022-08-23T07:21:30.789Z,11.48
2022-08-23T07:23:57.355Z,10.90
2022-08-23T07:26:25.078Z,11.88
2022-08-23T07:28:51.558Z,11.82
2022-08-23T07:31:22.736Z,10.55
2022-08-23T07:33:49.490Z,10.63
2022-08-23T07:36:18.352Z,11.02
2022-08-23T07:38:45.915Z,11.52
2022-08-23T07:41:13.617Z,11.00
2022-08-23T07:43:40.528Z,11.50
2022-08-23T07:46:08.978Z,10.30
2022-08-23T07:48:53.338Z,9.98
2022-08-23T07:51:20.572Z,9.35
2022-08-23T07:53:47.395Z,9.23
2022-08-23T07:56:16.265Z,8.60
2022-08-23T07:58:42.709Z,9.32
2022-08-23T08:01:20.192Z,8.45
2022-08-23T08:03:48.073Z,7.32
2022-08-23T08:06:17.716Z,9.07
2022-08-23T08:08:44.401Z,8.00
2022-08-23T08:11:12.409Z,7.75
2022-08-23T08:13:40.339Z,6.88
2022-08-23T08:16:08.455Z,6.90
2022-08-23T08:18:36.549Z,6.95
2022-08-23T08:21:04.165Z,7.45
2022-08-23T08:23:30.901Z,7.00
2022-08-23T08:26:05.743Z,6.78
2022-08-23T08:28:33.092Z,7.05
2022-08-23T08:31:00.053Z,7.15
2022-08-23T08:33:27.542Z,6.85
2022-08-23T08:36:00.797Z,6.85
2022-08-23T08:38:30.573Z,6.95
2022-08-23T08:41:16.251Z,6.68
2022-08-23T08:44:04.057Z,7.40
2022-08-23T08:49:07.640Z,6.60
2022-08-23T08:52:00.946Z,6.60
2022-08-23T08:54:29.269Z,6.47
2022-08-23T08:56:58.406Z,6.28
2022-08-23T08:59:34.695Z,6.50
2022-08-23T09:02:02.728Z,6.75
2022-08-23T09:04:31.603Z,6.57
2022-08-23T09:07:31.508Z,6.15
2022-08-23T09:10:09.425Z,5.78
2022-08-23T09:12:56.076Z,5.90
2022-08-23T09:15:38.109Z,6.53
2022-08-23T09:18:12.258Z,5.93
2022-08-23T09:20:40.940Z,6.10
2022-08-23T09:23:19.307Z,6.88
2022-08-23T09:25:54.272Z,6.40
2022-08-23T09:28:20.799Z,6.90
2022-08-23T09:30:56.289Z,6.65
2022-08-23T09:33:26.136Z,6.65
2022-08-23T09:36:18.293Z,6.40
2022-08-23T09:38:57.612Z,7.10
2022-08-23T09:41:36.515Z,7.10
2022-08-23T09:44:04.759Z,6.50
2022-08-23T09:49:01.169Z,7.70
2022-08-23T09:51:35.045Z,7.07
2022-08-23T09:54:24.971Z,5.80
2022-08-23T09:56:53.557Z,6.05
2022-08-23T09:59:26.795Z,6.00
2022-08-23T10:01:58.943Z,6.38
2022-08-23T10:04:37.469Z,5.95
2022-08-23T10:07:42.607Z,5.32
2022-08-23T10:10:15.571Z,5.80
2022-08-23T10:12:42.071Z,6.00
2022-08-23T10:15:09.561Z,5.15
2022-08-23T10:17:52.757Z,5.47
2022-08-23T10:20:33.778Z,5.85
2022-08-23T10:23:16.031Z,5.20
2022-08-23T10:25:47.171Z,5.78
2022-08-23T10:28:54.846Z,5.50
2022-08-23T10:32:01.870Z,4.40
2022-08-23T10:34:50.943Z,4.95
2022-08-23T10:37:54.387Z,5.40
2022-08-23T10:40:36.060Z,5.15
2022-08-23T10:43:25.982Z,5.13
2022-08-23T10:45:56.106Z,6.00
2022-08-23T10:48:29.693Z,5.35
2022-08-23T10:51:00.069Z,5.00
2022-08-23T10:53:47.973Z,4.30
2022-08-23T10:56:21.023Z,3.75
2022-08-23T10:58:53.977Z,4.40
2022-08-23T11:01:37.069Z,5.10
2022-08-23T11:04:04.872Z,3.40
2022-08-23T11:06:37.498Z,3.50
2022-08-23T11:09:19.067Z,3.50
2022-08-23T11:11:48.861Z,3.30
2022-08-23T11:14:46.075Z,3.33
2022-08-23T11:17:25.124Z,3.10
2022-08-23T11:20:08.372Z,3.33
2022-08-23T11:22:57.302Z,2.88
2022-08-23T11:25:23.706Z,2.90
2022-08-23T11:27:50.300Z,3.13
2022-08-23T11:30:32.200Z,3.88
2022-08-23T11:33:17.341Z,3.65
2022-08-23T11:35:48.193Z,3.08
2022-08-23T11:38:22.499Z,3.22
2022-08-23T11:40:52.155Z,2.50
2022-08-23T11:43:34.502Z,2.55
2022-08-23T11:46:27.070Z,2.63
2022-08-23T11:48:56.449Z,2.70
2022-08-23T11:51:33.320Z,2.33
2022-08-23T11:54:23.993Z,2.85
2022-08-23T11:57:31.611Z,2.33
2022-08-23T12:00:10.936Z,2.42
2022-08-23T12:03:02.271Z,2.63
2022-08-23T12:06:01.676Z,2.38
2022-08-23T12:08:50.124Z,2.30
2022-08-23T12:11:18.195Z,2.25
2022-08-23T12:13:47.593Z,4.93
2022-08-23T12:16:16.605Z,2.83
2022-08-23T12:18:54.807Z,2.22
2022-08-23T12:21:24.621Z,2.50
2022-08-23T12:23:55.104Z,2.38
2022-08-23T12:26:24.527Z,2.60
2022-08-23T12:28:57.679Z,2.22
2022-08-23T12:31:40.555Z,2.70
2022-08-23T12:34:12.670Z,2.55
2022-08-23T12:36:46.175Z,2.78
2022-08-23T12:39:33.369Z,2.80
2022-08-23T12:42:10.722Z,2.78
2022-08-23T12:44:37.191Z,2.70
2022-08-23T12:47:14.961Z,2.80
2022-08-23T12:49:41.860Z,2.63
2022-08-23T12:52:11.123Z,2.90
2022-08-23T12:54:43.702Z,2.70
2022-08-23T12:57:30.333Z,2.95
2022-08-23T13:00:17.299Z,3.00
2022-08-23T13:02:49.899Z,2.63
2022-08-23T13:05:41.234Z,3.03
2022-08-23T13:08:11.977Z,2.88
2022-08-23T13:10:41.402Z,2.90
2022-08-23T13:13:13.357Z,3.05
2022-08-23T13:15:47.495Z,2.75
2022-08-23T13:18:32.285Z,2.70
2022-08-23T13:21:18.635Z,2.83
2022-08-23T13:23:47.927Z,2.72
2022-08-23T13:26:43.639Z,2.63
2022-08-23T13:29:26.561Z,2.70
2022-08-23T13:31:57.178Z,3.08
2022-08-23T13:34:37.008Z,2.97
2022-08-23T13:37:16.173Z,2.72
2022-08-23T13:39:48.954Z,2.78
2022-08-23T13:42:27.035Z,2.60
2022-08-23T13:44:54.511Z,2.70
2022-08-23T13:47:24.261Z,2.97
2022-08-23T13:49:51.236Z,2.72
2022-08-23T13:52:45.839Z,2.78
2022-08-23T13:55:05.379Z,2.58
2022-08-23T13:57:37.373Z,2.50
2022-08-23T14:00:08.195Z,2.67
2022-08-23T14:02:34.743Z,2.78
2022-08-23T14:05:01.379Z,2.83
2022-08-23T14:07:27.997Z,2.95
2022-08-23T14:09:55.183Z,2.35
2022-08-23T14:12:24.697Z,2.55
2022-08-23T14:14:57.819Z,2.10
2022-08-23T14:17:24.955Z,2.75
2022-08-23T14:22:41.678Z,2.88
2022-08-23T14:25:08.956Z,2.60
2022-08-23T14:27:35.565Z,2.42
2022-08-23T14:30:04.323Z,3.30
2022-08-23T14:35:00.090Z,2.30
2022-08-23T14:40:13.191Z,2.40
2022-08-23T14:42:39.893Z,2.38
2022-08-23T14:45:07.048Z,2.40
2022-08-23T14:47:35.492Z,2.53
2022-08-23T14:50:04.594Z,2.42
2022-08-23T14:52:31.227Z,2.40
2022-08-23T14:54:58.005Z,2.70
2022-08-23T14:57:24.688Z,2.45
2022-08-23T14:59:51.222Z,2.60
2022-08-23T15:02:26.358Z,2.38
2022-08-23T15:04:53.893Z,2.25
2022-08-23T15:07:20.557Z,2.83
2022-08-23T15:09:49.068Z,2.45
2022-08-23T15:15:06.101Z,2.85
2022-08-23T15:17:36.584Z,2.88
2022-08-23T15:20:04.068Z,3.08
2022-08-23T15:22:32.864Z,3.08
2022-08-23T15:25:06.731Z,3.20
2022-08-23T15:27:33.250Z,3.53
2022-08-23T15:30:02.395Z,3.08
2022-08-23T15:32:28.860Z,3.65
2022-08-23T15:34:59.031Z,3.28
2022-08-23T15:37:25.891Z,3.28
2022-08-23T15:39:52.549Z,3.00
2022-08-23T15:42:20.573Z,3.17
2022-08-23T15:44:48.110Z,4.18
2022-08-23T15:47:22.365Z,3.65
2022-08-23T15:49:49.279Z,4.43
2022-08-23T15:52:16.137Z,4.28
2022-08-23T15:54:46.488Z,4.40
2022-08-23T15:57:17.595Z,4.18
2022-08-23T15:59:44.462Z,4.60
2022-08-23T16:02:11.603Z,4.20
2022-08-23T16:04:40.788Z,4.10
2022-08-23T16:07:09.459Z,3.75
2022-08-23T16:09:36.368Z,3.47
2022-08-23T16:12:04.716Z,4.38
2022-08-23T16:14:32.441Z,3.20
2022-08-23T16:17:00.315Z,2.97
2022-08-23T16:19:27.945Z,4.35
2022-08-23T16:21:55.403Z,3.70
2022-08-23T16:24:24.709Z,3.08
2022-08-23T16:27:07.749Z,3.75
2022-08-23T16:29:36.175Z,3.83
2022-08-23T16:32:09.467Z,3.22
2022-08-23T16:34:36.105Z,4.03
2022-08-23T16:37:06.847Z,3.35
2022-08-23T16:39:34.577Z,3.92
2022-08-23T16:42:05.759Z,3.13
2022-08-23T16:44:35.268Z,3.20
2022-08-23T16:47:03.494Z,3.92
2022-08-23T16:49:30.291Z,4.05
2022-08-23T16:51:57.335Z,4.20
2022-08-23T16:54:35.634Z,4.00
2022-08-23T16:57:02.587Z,4.32
2022-08-23T16:59:29.812Z,3.45
2022-08-23T17:01:59.644Z,3.30
2022-08-23T17:04:30.822Z,3.63
2022-08-23T17:06:58.323Z,3.28
2022-08-23T17:09:27.149Z,3.28
2022-08-23T17:11:54.802Z,4.00
2022-08-23T17:14:24.184Z,4.63
2022-08-23T17:16:50.736Z,3.80
2022-08-23T17:19:17.230Z,3.75
2022-08-23T17:21:43.667Z,3.55
2022-08-23T17:24:10.137Z,3.42
2022-08-23T17:26:37.607Z,3.55
2022-08-23T17:29:08.858Z,3.70
2022-08-23T17:31:36.374Z,3.70
2022-08-23T17:34:07.528Z,3.80
2022-08-23T17:36:38.359Z,4.05
2022-08-23T17:39:08.913Z,3.28
2022-08-23T17:41:35.626Z,4.00
2022-08-23T17:44:03.727Z,3.47
2022-08-23T17:46:30.167Z,3.95
2022-08-23T17:48:57.694Z,4.28
2022-08-23T17:51:24.540Z,3.65
2022-08-23T17:53:51.103Z,10.68
2022-08-23T17:56:17.568Z,3.70
2022-08-23T17:58:44.255Z,3.75
2022-08-23T18:01:11.316Z,3.67
2022-08-23T18:03:38.856Z,3.40
2022-08-23T18:06:16.341Z,4.43
2022-08-23T18:08:44.895Z,4.20
2022-08-23T18:11:11.415Z,4.75
2022-08-23T18:13:38.225Z,4.85
2022-08-23T18:16:05.019Z,3.95
2022-08-23T18:18:32.221Z,4.78
2022-08-23T18:20:58.794Z,4.32
2022-08-23T18:23:26.177Z,4.45
2022-08-23T18:25:52.631Z,4.63
2022-08-23T18:28:19.090Z,4.53
2022-08-23T18:30:57.532Z,5.00
2022-08-23T18:33:31.779Z,5.20
2022-08-23T18:36:01.917Z,4.90
2022-08-23T18:38:28.370Z,4.90
2022-08-23T18:40:55.021Z,3.42
2022-08-23T18:43:24.334Z,5.22
2022-08-23T18:45:53.428Z,4.18
2022-08-23T18:48:22.157Z,4.93
2022-08-23T18:50:49.629Z,5.10
2022-08-23T18:53:18.794Z,4.82
2022-08-23T18:55:45.781Z,5.97
2022-08-23T18:58:12.411Z,6.00
2022-08-23T19:00:39.465Z,6.70
2022-08-23T19:03:06.886Z,5.43
2022-08-23T19:05:41.472Z,6.13
2022-08-23T19:08:09.930Z,6.00
2022-08-23T19:10:36.644Z,7.57
2022-08-23T19:13:04.423Z,6.60
2022-08-23T19:15:33.337Z,6.25
2022-08-23T19:18:00.860Z,7.45
2022-08-23T19:20:27.718Z,6.55
2022-08-23T19:22:55.729Z,6.50
2022-08-23T19:25:22.481Z,6.70
2022-08-23T19:27:48.925Z,6.75
2022-08-23T19:30:17.457Z,6.45
2022-08-23T19:32:45.099Z,6.50
2022-08-23T19:35:12.858Z,5.80
2022-08-23T19:37:39.442Z,5.38
2022-08-23T19:40:07.125Z,5.55
2022-08-23T19:42:36.881Z,5.15
2022-08-23T19:45:07.748Z,5.57
2022-08-23T19:47:34.743Z,6.05
2022-08-23T19:50:02.722Z,5.88
2022-08-23T19:52:29.162Z,5.05
2022-08-23T19:55:05.128Z,5.68
2022-08-23T19:57:32.701Z,5.30
2022-08-23T20:00:00.771Z,5.70
2022-08-23T20:02:28.097Z,6.60
2022-08-23T20:04:54.580Z,8.27
2022-08-23T20:07:21.173Z,8.27
2022-08-23T20:09:47.583Z,7.28
2022-08-23T20:12:15.505Z,7.30
2022-08-23T20:14:42.202Z,7.20
2022-08-23T20:17:08.742Z,6.43
2022-08-23T20:19:35.571Z,6.70
2022-08-23T20:22:21.702Z,6.85
2022-08-23T20:24:52.014Z,7.20
2022-08-23T20:27:28.287Z,6.55
2022-08-23T20:29:58.791Z,7.05
2022-08-23T20:32:26.273Z,5.82
2022-08-23T20:34:52.738Z,6.70
2022-08-23T20:37:19.704Z,6.95
2022-08-23T20:39:46.332Z,5.95
2022-08-23T20:42:12.857Z,6.72
2022-08-23T20:44:39.360Z,5.93
2022-08-23T20:47:08.183Z,6.55
2022-08-23T20:49:34.816Z,6.70
2022-08-23T20:52:01.406Z,6.93
2022-08-23T20:54:27.941Z,6.05
2022-08-23T20:56:54.404Z,6.57
2022-08-23T20:59:20.887Z,5.80
2022-08-23T21:01:47.951Z,6.47
2022-08-23T21:04:14.615Z,6.38
2022-08-23T21:06:47.033Z,7.10
2022-08-23T21:09:16.962Z,6.40
2022-08-23T21:14:10.118Z,6.40
2022-08-23T21:16:36.763Z,6.65
2022-08-23T21:19:03.802Z,6.25
2022-08-23T21:21:30.422Z,6.45
2022-08-23T21:23:57.418Z,5.82
2022-08-23T21:26:24.514Z,6.43
2022-08-23T21:28:51.838Z,6.22
2022-08-23T21:31:21.781Z,7.32
2022-08-23T21:33:48.750Z,7.72
2022-08-23T21:36:15.786Z,7.38
2022-08-23T21:38:42.428Z,6.75
2022-08-23T21:41:48.086Z,6.60
2022-08-23T21:44:18.211Z,6.75
2022-08-23T21:46:45.137Z,6.90
2022-08-23T21:49:12.739Z,7.35
2022-08-23T21:51:39.950Z,6.68
2022-08-23T21:54:14.370Z,7.50
2022-08-23T21:56:41.472Z,6.82
2022-08-23T21:59:11.195Z,7.05
2022-08-23T22:01:39.269Z,7.57
2022-08-23T22:04:07.692Z,7.25
2022-08-23T22:06:35.018Z,7.78
2022-08-23T22:09:01.839Z,6.05
2022-08-23T22:11:29.061Z,7.00
2022-08-23T22:13:55.838Z,7.10
2022-08-23T22:16:22.786Z,7.05
2022-08-23T22:18:49.281Z,7.55
2022-08-23T22:21:15.701Z,8.52
2022-08-23T22:23:44.586Z,8.20
2022-08-23T22:26:13.694Z,8.02
2022-08-23T22:28:44.278Z,7.05
2022-08-23T22:31:12.905Z,7.65
2022-08-23T22:33:40.363Z,7.95
2022-08-23T22:36:14.504Z,8.93
2022-08-23T22:38:40.938Z,9.10
2022-08-23T22:41:07.486Z,8.15
2022-08-23T22:43:34.358Z,7.65
2022-08-23T22:46:03.274Z,6.68
2022-08-23T22:48:31.489Z,7.88
2022-08-23T22:51:13.964Z,6.93
2022-08-23T22:53:44.490Z,5.93
2022-08-23T22:56:13.652Z,6.97
2022-08-23T22:58:40.447Z,6.75
2022-08-23T23:01:13.058Z,7.05
2022-08-23T23:03:41.223Z,6.40
2022-08-23T23:06:07.968Z,5.97
2022-08-23T23:08:34.386Z,6.07
2022-08-23T23:11:03.945Z,5.45
2022-08-23T23:13:31.521Z,5.22
2022-08-23T23:15:59.902Z,5.03
2022-08-23T23:18:26.702Z,5.68
2022-08-23T23:20:57.855Z,5.93
2022-08-23T23:23:24.558Z,6.55
2022-08-23T23:25:51.567Z,7.43
2022-08-23T23:28:18.919Z,6.13
2022-08-23T23:30:47.251Z,5.22
2022-08-23T23:33:14.807Z,5.00
2022-08-23T23:35:41.888Z,5.40
2022-08-23T23:38:09.586Z,5.43
2022-08-23T23:40:37.171Z,5.60
2022-08-23T23:43:03.847Z,5.80
2022-08-23T23:45:30.368Z,6.40
2022-08-23T23:47:56.951Z,6.32
2022-08-23T23:50:23.973Z,7.05
2022-08-23T23:52:50.975Z,7.40
2022-08-23T23:55:19.153Z,7.35
2022-08-23T23:57:45.764Z,6.88
